sensor_id;sensor_type;location;lat;lon;timestamp;pressure;altitude;pressure_sealevel;temperature;humidity
80927;BME280;70385;44.538;18.532;2024-03-23T00:51:53;99401.44;;;3.16;100.00
80927;BME280;70385;44.538;18.532;2024-03-23T00:54:18;99393.78;;;3.07;100.00
80927;BME280;70385;44.538;18.532;2024-03-23T00:56:44;99393.78;;;3.10;100.00
80927;BME280;70385;44.538;18.532;2024-03-23T00:59:10;99382.72;;;2.98;100.00
80927;BME280;70385;44.538;18.532;2024-03-23T01:01:36;99396.34;;;3.10;100.00
80927;BME280;70385;44.538;18.532;2024-03-23T01:04:02;99389.38;;;3.15;100.00
80927;BME280;70385;44.538;18.532;2024-03-23T01:06:28;99371.25;;;3.16;100.00
80927;BME280;70385;44.538;18.532;2024-03-23T01:08:54;99381.50;;;3.22;100.00
80927;BME280;70385;44.538;18.532;2024-03-23T01:11:20;99378.06;;;3.22;100.00
80927;BME280;70385;44.538;18.532;2024-03-23T01:13:45;99383.22;;;3.23;100.00
80927;BME280;70385;44.538;18.532;2024-03-23T01:16:11;99371.25;;;3.18;100.00
80927;BME280;70385;44.538;18.532;2024-03-23T01:18:37;99362.75;;;3.08;100.00
80927;BME280;70385;44.538;18.532;2024-03-23T01:21:03;99364.53;;;3.04;100.00
80927;BME280;70385;44.538;18.532;2024-03-23T01:23:29;99361.91;;;3.06;100.00
80927;BME280;70385;44.538;18.532;2024-03-23T01:25:55;99372.31;;;3.03;100.00
80927;BME280;70385;44.538;18.532;2024-03-23T01:28:21;99359.38;;;3.03;100.00
80927;BME280;70385;44.538;18.532;2024-03-23T01:30:48;99348.25;;;2.99;100.00
80927;BME280;70385;44.538;18.532;2024-03-23T01:33:14;99359.53;;;2.94;100.00
80927;BME280;70385;44.538;18.532;2024-03-23T01:35:39;99352.72;;;2.87;100.00
80927;BME280;70385;44.538;18.532;2024-03-23T01:38:06;99351.94;;;2.82;100.00
80927;BME280;70385;44.538;18.532;2024-03-23T01:40:34;99345.91;;;2.81;100.00
80927;BME280;70385;44.538;18.532;2024-03-23T01:43:05;99338.13;;;2.83;100.00
80927;BME280;70385;44.538;18.532;2024-03-23T01:45:32;99351.91;;;2.83;100.00
80927;BME280;70385;44.538;18.532;2024-03-23T01:48:22;99355.28;;;2.87;100.00
80927;BME280;70385;44.538;18.532;2024-03-23T01:50:50;99347.72;;;2.74;100.00
80927;BME280;70385;44.538;18.532;2024-03-23T01:53:16;99345.28;;;2.62;100.00
80927;BME280;70385;44.538;18.532;2024-03-23T01:55:47;99348.03;;;2.50;100.00
80927;BME280;70385;44.538;18.532;2024-03-23T01:58:13;99350.72;;;2.42;100.00
80927;BME280;70385;44.538;18.532;2024-03-23T02:00:39;99342.94;;;2.44;100.00
80927;BME280;70385;44.538;18.532;2024-03-23T02:03:27;99348.91;;;2.48;100.00
80927;BME280;70385;44.538;18.532;2024-03-23T02:05:54;99342.06;;;2.45;100.00
80927;BME280;70385;44.538;18.532;2024-03-23T02:08:21;99346.34;;;2.46;100.00
80927;BME280;70385;44.538;18.532;2024-03-23T02:10:48;99327.53;;;2.38;100.00
80927;BME280;70385;44.538;18.532;2024-03-23T02:13:15;99338.63;;;2.44;100.00
80927;BME280;70385;44.538;18.532;2024-03-23T02:15:42;99337.75;;;2.47;100.00
80927;BME280;70385;44.538;18.532;2024-03-23T02:18:08;99335.16;;;2.47;100.00
80927;BME280;70385;44.538;18.532;2024-03-23T02:20:37;99327.34;;;2.53;100.00
80927;BME280;70385;44.538;18.532;2024-03-23T02:23:04;99328.94;;;2.62;100.00
80927;BME280;70385;44.538;18.532;2024-03-23T02:25:34;99322.09;;;2.59;100.00
80927;BME280;70385;44.538;18.532;2024-03-23T02:28:00;99322.25;;;2.46;100.00
80927;BME280;70385;44.538;18.532;2024-03-23T02:30:26;99321.56;;;2.34;100.00
80927;BME280;70385;44.538;18.532;2024-03-23T02:32:52;99313.13;;;2.19;100.00
80927;BME280;70385;44.538;18.532;2024-03-23T02:35:18;99315.78;;;2.11;100.00
80927;BME280;70385;44.538;18.532;2024-03-23T02:37:46;99311.59;;;2.02;100.00
80927;BME280;70385;44.538;18.532;2024-03-23T02:40:12;99301.22;;;2.07;100.00
80927;BME280;70385;44.538;18.532;2024-03-23T02:42:37;99311.50;;;2.13;100.00
80927;BME280;70385;44.538;18.532;2024-03-23T02:45:03;99299.31;;;2.23;100.00
80927;BME280;70385;44.538;18.532;2024-03-23T02:47:30;99305.59;;;2.00;100.00
80927;BME280;70385;44.538;18.532;2024-03-23T02:49:56;99304.88;;;1.88;100.00
80927;BME280;70385;44.538;18.532;2024-03-23T02:52:22;99310.88;;;1.88;100.00
80927;BME280;70385;44.538;18.532;2024-03-23T02:54:48;99304.06;;;1.84;100.00
80927;BME280;70385;44.538;18.532;2024-03-23T02:57:14;99303.28;;;1.76;100.00
80927;BME280;70385;44.538;18.532;2024-03-23T02:59:40;99298.13;;;1.77;100.00
80927;BME280;70385;44.538;18.532;2024-03-23T03:02:06;99300.72;;;1.76;100.00
80927;BME280;70385;44.538;18.532;2024-03-23T03:04:32;99298.06;;;1.82;100.00
80927;BME280;70385;44.538;18.532;2024-03-23T03:06:58;99298.03;;;1.85;100.00
80927;BME280;70385;44.538;18.532;2024-03-23T03:09:24;99293.75;;;1.84;100.00
80927;BME280;70385;44.538;18.532;2024-03-23T03:11:50;99295.38;;;1.94;100.00
80927;BME280;70385;44.538;18.532;2024-03-23T03:14:16;99286.88;;;1.81;100.00
80927;BME280;70385;44.538;18.532;2024-03-23T03:16:43;99283.47;;;1.81;100.00
80927;BME280;70385;44.538;18.532;2024-03-23T03:19:09;99292.97;;;1.76;100.00
80927;BME280;70385;44.538;18.532;2024-03-23T03:21:36;99293.75;;;1.84;100.00
80927;BME280;70385;44.538;18.532;2024-03-23T03:24:03;99280.09;;;1.74;100.00
80927;BME280;70385;44.538;18.532;2024-03-23T03:26:29;99275.78;;;1.73;100.00
80927;BME280;70385;44.538;18.532;2024-03-23T03:28:55;99280.88;;;1.81;100.00
80927;BME280;70385;44.538;18.532;2024-03-23T03:31:20;99279.13;;;1.83;100.00
80927;BME280;70385;44.538;18.532;2024-03-23T03:33:47;99276.56;;;1.81;100.00
80927;BME280;70385;44.538;18.532;2024-03-23T03:36:12;99279.13;;;1.83;100.00
80927;BME280;70385;44.538;18.532;2024-03-23T03:38:38;99270.53;;;1.84;100.00
80927;BME280;70385;44.538;18.532;2024-03-23T03:41:04;99275.75;;;1.79;100.00
80927;BME280;70385;44.538;18.532;2024-03-23T03:43:34;99277.31;;;1.90;100.00
80927;BME280;70385;44.538;18.532;2024-03-23T03:46:00;99280.03;;;1.80;100.00
80927;BME280;70385;44.538;18.532;2024-03-23T03:48:27;99269.66;;;1.85;100.00
80927;BME280;70385;44.538;18.532;2024-03-23T03:50:56;99266.28;;;1.80;100.00
80927;BME280;70385;44.538;18.532;2024-03-23T03:53:22;99257.47;;;1.98;100.00
80927;BME280;70385;44.538;18.532;2024-03-23T03:55:47;99254.13;;;1.88;100.00
80927;BME280;70385;44.538;18.532;2024-03-23T03:58:15;99265.31;;;1.87;100.00
80927;BME280;70385;44.538;18.532;2024-03-23T04:00:44;99248.19;;;1.81;100.00
80927;BME280;70385;44.538;18.532;2024-03-23T04:03:10;99266.28;;;1.80;100.00
80927;BME280;70385;44.538;18.532;2024-03-23T04:05:36;99260.41;;;1.66;100.00
80927;BME280;70385;44.538;18.532;2024-03-23T04:08:04;99258.63;;;1.71;100.00
80927;BME280;70385;44.538;18.532;2024-03-23T04:10:30;99273.41;;;1.57;100.00
80927;BME280;70385;44.538;18.532;2024-03-23T04:12:58;99269.09;;;1.57;100.00
80927;BME280;70385;44.538;18.532;2024-03-23T04:15:24;99261.47;;;1.43;100.00
80927;BME280;70385;44.538;18.532;2024-03-23T04:17:49;99254.72;;;1.32;100.00
80927;BME280;70385;44.538;18.532;2024-03-23T04:20:16;99258.97;;;1.37;100.00
80927;BME280;70385;44.538;18.532;2024-03-23T04:22:43;99265.84;;;1.34;100.00
80927;BME280;70385;44.538;18.532;2024-03-23T04:25:09;99269.31;;;1.36;100.00
80927;BME280;70385;44.538;18.532;2024-03-23T04:27:36;99265.00;;;1.33;100.00
80927;BME280;70385;44.538;18.532;2024-03-23T04:30:03;99266.78;;;1.28;100.00
80927;BME280;70385;44.538;18.532;2024-03-23T04:32:33;99266.91;;;1.16;100.00
80927;BME280;70385;44.538;18.532;2024-03-23T04:34:59;99266.84;;;1.22;100.00
80927;BME280;70385;44.538;18.532;2024-03-23T04:37:26;99264.31;;;1.16;100.00
80927;BME280;70385;44.538;18.532;2024-03-23T04:39:52;99267.69;;;1.23;100.00
80927;BME280;70385;44.538;18.532;2024-03-23T04:42:18;99267.72;;;1.21;100.00
80927;BME280;70385;44.538;18.532;2024-03-23T04:44:44;99264.16;;;1.36;100.00
80927;BME280;70385;44.538;18.532;2024-03-23T04:47:10;99257.31;;;1.29;100.00
80927;BME280;70385;44.538;18.532;2024-03-23T04:49:40;99265.00;;;1.36;100.00
80927;BME280;70385;44.538;18.532;2024-03-23T04:52:06;99261.53;;;1.40;100.00
80927;BME280;70385;44.538;18.532;2024-03-23T04:54:32;99257.97;;;1.49;100.00
80927;BME280;70385;44.538;18.532;2024-03-23T04:56:59;99257.09;;;1.55;100.00
80927;BME280;70385;44.538;18.532;2024-03-23T04:59:25;99255.38;;;1.52;100.00
80927;BME280;70385;44.538;18.532;2024-03-23T05:01:51;99255.34;;;1.58;100.00
80927;BME280;70385;44.538;18.532;2024-03-23T05:04:17;99259.66;;;1.56;100.00
80927;BME280;70385;44.538;18.532;2024-03-23T05:06:43;99253.56;;;1.62;100.00
80927;BME280;70385;44.538;18.532;2024-03-23T05:09:12;99256.28;;;1.46;100.00
80927;BME280;70385;44.538;18.532;2024-03-23T05:11:38;99268.38;;;1.43;100.00
80927;BME280;70385;44.538;18.532;2024-03-23T05:14:04;99274.34;;;1.45;100.00
80927;BME280;70385;44.538;18.532;2024-03-23T05:16:30;99265.75;;;1.47;100.00
80927;BME280;70385;44.538;18.532;2024-03-23T05:18:59;99267.44;;;1.50;100.00
80927;BME280;70385;44.538;18.532;2024-03-23T05:21:25;99251.97;;;1.50;100.00
80927;BME280;70385;44.538;18.532;2024-03-23T05:24:02;99259.63;;;1.58;100.00
80927;BME280;70385;44.538;18.532;2024-03-23T05:26:28;99256.06;;;1.68;100.00
80927;BME280;70385;44.538;18.532;2024-03-23T05:28:57;99252.59;;;1.70;100.00
80927;BME280;70385;44.538;18.532;2024-03-23T05:31:34;99248.28;;;1.75;100.00
80927;BME280;70385;44.538;18.532;2024-03-23T05:34:09;99249.16;;;1.70;100.00
80927;BME280;70385;44.538;18.532;2024-03-23T05:36:50;99232.09;;;1.61;100.00
80927;BME280;70385;44.538;18.532;2024-03-23T05:39:18;99233.72;;;1.67;100.00
80927;BME280;70385;44.538;18.532;2024-03-23T05:41:50;99240.56;;;1.71;100.00
80927;BME280;70385;44.538;18.532;2024-03-23T05:44:17;99247.22;;;1.90;100.00
80927;BME280;70385;44.538;18.532;2024-03-23T05:46:45;99238.50;;;2.00;100.00
80927;BME280;70385;44.538;18.532;2024-03-23T05:49:15;99241.75;;;2.18;100.00
80927;BME280;70385;44.538;18.532;2024-03-23T05:51:42;99254.47;;;2.30;100.00
80927;BME280;70385;44.538;18.532;2024-03-23T05:54:11;99232.88;;;2.37;100.00
80927;BME280;70385;44.538;18.532;2024-03-23T05:56:37;99245.56;;;2.54;100.00
80927;BME280;70385;44.538;18.532;2024-03-23T05:59:02;99244.47;;;2.68;100.00
80927;BME280;70385;44.538;18.532;2024-03-23T06:01:29;99235.69;;;2.80;100.00
80927;BME280;70385;44.538;18.532;2024-03-23T06:03:58;99227.78;;;2.91;100.00
80927;BME280;70385;44.538;18.532;2024-03-23T06:06:24;99235.22;;;3.08;100.00
80927;BME280;70385;44.538;18.532;2024-03-23T06:08:50;99231.53;;;3.22;100.00
80927;BME280;70385;44.538;18.532;2024-03-23T06:11:16;99237.28;;;3.40;100.00
80927;BME280;70385;44.538;18.532;2024-03-23T06:13:43;99236.25;;;3.50;100.00
80927;BME280;70385;44.538;18.532;2024-03-23T06:16:09;99229.75;;;3.74;100.00
80927;BME280;70385;44.538;18.532;2024-03-23T06:18:36;99232.88;;;3.91;100.00
80927;BME280;70385;44.538;18.532;2024-03-23T06:21:02;99224.00;;;4.01;100.00
80927;BME280;70385;44.538;18.532;2024-03-23T06:23:28;99232.28;;;4.18;100.00
80927;BME280;70385;44.538;18.532;2024-03-23T06:25:56;99229.28;;;4.38;100.00
80927;BME280;70385;44.538;18.532;2024-03-23T06:28:24;99224.53;;;4.57;100.00
80927;BME280;70385;44.538;18.532;2024-03-23T06:30:50;99225.75;;;4.79;100.00
80927;BME280;70385;44.538;18.532;2024-03-23T06:33:17;99221.13;;;4.92;100.00
80927;BME280;70385;44.538;18.532;2024-03-23T06:35:50;99213.53;;;5.18;100.00
80927;BME280;70385;44.538;18.532;2024-03-23T06:38:21;99209.59;;;5.38;100.00
80927;BME280;70385;44.538;18.532;2024-03-23T06:40:47;99212.50;;;5.58;100.00
80927;BME280;70385;44.538;18.532;2024-03-23T06:43:16;99217.56;;;5.64;100.00
80927;BME280;70385;44.538;18.532;2024-03-23T06:45:52;99204.75;;;5.89;100.00
80927;BME280;70385;44.538;18.532;2024-03-23T06:48:18;99210.78;;;5.91;100.00
80927;BME280;70385;44.538;18.532;2024-03-23T06:50:45;99202.50;;;6.08;100.00
80927;BME280;70385;44.538;18.532;2024-03-23T06:53:12;99195.63;;;6.35;100.00
80927;BME280;70385;44.538;18.532;2024-03-23T06:55:41;99197.13;;;6.70;100.00
80927;BME280;70385;44.538;18.532;2024-03-23T06:58:08;99198.34;;;6.86;100.00
80927;BME280;70385;44.538;18.532;2024-03-23T07:00:35;99190.75;;;7.07;100.00
80927;BME280;70385;44.538;18.532;2024-03-23T07:03:01;99187.25;;;7.32;100.00
80927;BME280;70385;44.538;18.532;2024-03-23T07:05:29;99182.63;;;7.66;100.00
80927;BME280;70385;44.538;18.532;2024-03-23T07:07:55;99178.81;;;7.76;100.00
80927;BME280;70385;44.538;18.532;2024-03-23T07:10:21;99185.16;;;7.92;100.00
80927;BME280;70385;44.538;18.532;2024-03-23T07:12:47;99180.91;;;8.13;100.00
80927;BME280;70385;44.538;18.532;2024-03-23T07:15:13;99180.63;;;8.20;100.00
80927;BME280;70385;44.538;18.532;2024-03-23T07:17:48;99170.56;;;8.35;100.00
80927;BME280;70385;44.538;18.532;2024-03-23T07:20:14;99166.91;;;8.61;100.00
80927;BME280;70385;44.538;18.532;2024-03-23T07:22:39;99162.22;;;8.91;100.00
80927;BME280;70385;44.538;18.532;2024-03-23T07:25:06;99160.69;;;9.07;100.00
80927;BME280;70385;44.538;18.532;2024-03-23T07:27:33;99162.91;;;9.36;100.00
80927;BME280;70385;44.538;18.532;2024-03-23T07:30:03;99153.41;;;9.54;100.00
80927;BME280;70385;44.538;18.532;2024-03-23T07:32:28;99140.88;;;9.42;100.00
80927;BME280;70385;44.538;18.532;2024-03-23T07:34:54;99143.63;;;9.78;100.00
80927;BME280;70385;44.538;18.532;2024-03-23T07:37:22;99143.03;;;10.11;100.00
80927;BME280;70385;44.538;18.532;2024-03-23T07:39:51;99138.97;;;10.24;100.00
80927;BME280;70385;44.538;18.532;2024-03-23T07:42:17;99142.97;;;10.31;100.00
80927;BME280;70385;44.538;18.532;2024-03-23T07:44:43;99137.31;;;10.40;100.00
80927;BME280;70385;44.538;18.532;2024-03-23T07:47:09;99131.94;;;10.43;100.00
80927;BME280;70385;44.538;18.532;2024-03-23T07:49:35;99129.13;;;10.29;100.00
80927;BME280;70385;44.538;18.532;2024-03-23T07:52:02;99130.91;;;10.64;100.00
80927;BME280;70385;44.538;18.532;2024-03-23T07:54:27;99125.56;;;11.02;100.00
80927;BME280;70385;44.538;18.532;2024-03-23T07:56:56;99121.53;;;11.12;100.00
80927;BME280;70385;44.538;18.532;2024-03-23T07:59:22;99110.84;;;11.50;100.00
80927;BME280;70385;44.538;18.532;2024-03-23T08:01:47;99107.88;;;11.73;100.00
80927;BME280;70385;44.538;18.532;2024-03-23T08:04:13;99117.09;;;11.98;100.00
80927;BME280;70385;44.538;18.532;2024-03-23T08:06:39;99094.25;;;12.00;100.00
80927;BME280;70385;44.538;18.532;2024-03-23T08:09:05;99091.63;;;12.15;100.00
80927;BME280;70385;44.538;18.532;2024-03-23T08:11:36;99093.22;;;12.18;100.00
80927;BME280;70385;44.538;18.532;2024-03-23T08:14:05;99092.53;;;12.46;100.00
80927;BME280;70385;44.538;18.532;2024-03-23T08:16:31;99098.19;;;12.84;100.00
80927;BME280;70385;44.538;18.532;2024-03-23T08:18:57;99085.13;;;12.98;100.00
80927;BME280;70385;44.538;18.532;2024-03-23T08:21:23;99088.94;;;12.93;96.36
80927;BME280;70385;44.538;18.532;2024-03-23T08:23:50;99084.00;;;13.02;93.98
80927;BME280;70385;44.538;18.532;2024-03-23T08:26:19;99075.44;;;13.43;93.20
80927;BME280;70385;44.538;18.532;2024-03-23T08:28:45;99063.34;;;13.55;91.47
80927;BME280;70385;44.538;18.532;2024-03-23T08:31:12;99064.16;;;13.84;90.02
80927;BME280;70385;44.538;18.532;2024-03-23T08:33:41;99072.09;;;14.11;85.63
80927;BME280;70385;44.538;18.532;2024-03-23T08:36:09;99053.13;;;14.33;81.46
80927;BME280;70385;44.538;18.532;2024-03-23T08:38:37;99045.13;;;14.48;81.79
80927;BME280;70385;44.538;18.532;2024-03-23T08:41:11;99047.28;;;14.81;77.71
80927;BME280;70385;44.538;18.532;2024-03-23T08:43:45;99050.47;;;14.99;76.31
80927;BME280;70385;44.538;18.532;2024-03-23T08:46:15;99036.38;;;15.13;70.27
80927;BME280;70385;44.538;18.532;2024-03-23T08:48:49;99035.75;;;15.47;68.85
80927;BME280;70385;44.538;18.532;2024-03-23T08:51:17;99033.22;;;15.46;66.32
80927;BME280;70385;44.538;18.532;2024-03-23T08:53:43;99017.69;;;15.67;65.02
80927;BME280;70385;44.538;18.532;2024-03-23T08:56:14;99019.66;;;15.76;61.02
80927;BME280;70385;44.538;18.532;2024-03-23T08:58:41;99009.19;;;15.87;61.51
80927;BME280;70385;44.538;18.532;2024-03-23T09:01:09;99009.44;;;16.32;60.13
80927;BME280;70385;44.538;18.532;2024-03-23T09:03:36;99003.75;;;16.49;58.57
80927;BME280;70385;44.538;18.532;2024-03-23T09:06:10;99003.28;;;16.55;56.56
80927;BME280;70385;44.538;18.532;2024-03-23T09:08:37;99001.38;;;16.57;56.45
80927;BME280;70385;44.538;18.532;2024-03-23T09:11:04;99000.44;;;16.58;53.00
80927;BME280;70385;44.538;18.532;2024-03-23T09:13:38;98993.44;;;16.81;53.43
80927;BME280;70385;44.538;18.532;2024-03-23T09:16:05;98978.22;;;17.07;53.91
80927;BME280;70385;44.538;18.532;2024-03-23T09:18:33;98971.25;;;17.06;52.12
80927;BME280;70385;44.538;18.532;2024-03-23T09:21:03;98956.13;;;17.19;51.18
80927;BME280;70385;44.538;18.532;2024-03-23T09:23:29;98964.03;;;17.64;51.47
80927;BME280;70385;44.538;18.532;2024-03-23T09:25:58;98947.03;;;17.89;51.02
80927;BME280;70385;44.538;18.532;2024-03-23T09:28:28;98952.72;;;18.16;49.68
80927;BME280;70385;44.538;18.532;2024-03-23T09:30:54;98950.94;;;18.06;50.05
80927;BME280;70385;44.538;18.532;2024-03-23T09:33:23;98948.31;;;18.38;50.35
80927;BME280;70385;44.538;18.532;2024-03-23T09:35:49;98944.25;;;18.55;49.45
80927;BME280;70385;44.538;18.532;2024-03-23T09:38:15;98934.78;;;18.41;48.19
80927;BME280;70385;44.538;18.532;2024-03-23T09:40:41;98931.56;;;18.58;47.26
80927;BME280;70385;44.538;18.532;2024-03-23T09:43:10;98931.69;;;18.98;46.56
80927;BME280;70385;44.538;18.532;2024-03-23T09:45:40;98915.94;;;19.06;45.23
80927;BME280;70385;44.538;18.532;2024-03-23T09:48:09;98912.47;;;19.06;44.81
80927;BME280;70385;44.538;18.532;2024-03-23T09:50:41;98908.84;;;19.07;43.05
80927;BME280;70385;44.538;18.532;2024-03-23T09:53:12;98898.59;;;18.93;43.54
80927;BME280;70385;44.538;18.532;2024-03-23T09:55:39;98898.44;;;19.25;43.69
80927;BME280;70385;44.538;18.532;2024-03-23T09:58:05;98898.63;;;19.02;41.42
80927;BME280;70385;44.538;18.532;2024-03-23T10:00:35;98887.47;;;19.39;41.01
80927;BME280;70385;44.538;18.532;2024-03-23T10:03:01;98885.00;;;19.57;40.77
80927;BME280;70385;44.538;18.532;2024-03-23T10:05:29;98878.69;;;19.48;40.27
80927;BME280;70385;44.538;18.532;2024-03-23T10:07:57;98872.66;;;19.46;38.87
80927;BME280;70385;44.538;18.532;2024-03-23T10:10:25;98867.03;;;19.80;38.73
80927;BME280;70385;44.538;18.532;2024-03-23T10:12:51;98860.88;;;19.79;37.93
80927;BME280;70385;44.538;18.532;2024-03-23T10:15:25;98862.56;;;19.90;37.78
80927;BME280;70385;44.538;18.532;2024-03-23T10:17:51;98850.81;;;20.12;38.06
80927;BME280;70385;44.538;18.532;2024-03-23T10:20:24;98845.47;;;20.41;37.08
80927;BME280;70385;44.538;18.532;2024-03-23T10:22:50;98836.75;;;20.58;37.15
80927;BME280;70385;44.538;18.532;2024-03-23T10:25:23;98834.50;;;20.63;37.83
80927;BME280;70385;44.538;18.532;2024-03-23T10:27:58;98840.59;;;20.26;36.64
80927;BME280;70385;44.538;18.532;2024-03-23T10:30:25;98827.03;;;20.29;36.42
80927;BME280;70385;44.538;18.532;2024-03-23T10:33:11;98824.59;;;20.92;36.58
80927;BME280;70385;44.538;18.532;2024-03-23T10:35:38;98816.25;;;20.78;35.50
80927;BME280;70385;44.538;18.532;2024-03-23T10:38:07;98810.38;;;20.84;35.03
80927;BME280;70385;44.538;18.532;2024-03-23T10:40:34;98808.16;;;21.07;34.39
80927;BME280;70385;44.538;18.532;2024-03-23T10:43:03;98809.03;;;20.98;33.96
80927;BME280;70385;44.538;18.532;2024-03-23T10:45:30;98792.66;;;21.47;33.89
80927;BME280;70385;44.538;18.532;2024-03-23T10:47:56;98795.78;;;21.15;35.45
80927;BME280;70385;44.538;18.532;2024-03-23T10:50:24;98792.13;;;21.16;34.43
80927;BME280;70385;44.538;18.532;2024-03-23T10:52:52;98782.31;;;21.62;33.23
80927;BME280;70385;44.538;18.532;2024-03-23T10:55:19;98775.63;;;21.40;32.65
80927;BME280;70385;44.538;18.532;2024-03-23T10:57:54;98758.88;;;21.66;31.97
80927;BME280;70385;44.538;18.532;2024-03-23T11:00:21;98755.91;;;21.69;30.89
80927;BME280;70385;44.538;18.532;2024-03-23T11:02:49;98754.25;;;22.11;31.28
80927;BME280;70385;44.538;18.532;2024-03-23T11:05:31;98739.69;;;22.24;31.60
80927;BME280;70385;44.538;18.532;2024-03-23T11:07:57;98753.94;;;21.71;32.71
80927;BME280;70385;44.538;18.532;2024-03-23T11:10:30;98743.66;;;21.76;30.97
80927;BME280;70385;44.538;18.532;2024-03-23T11:12:57;98739.16;;;21.76;31.06
80927;BME280;70385;44.538;18.532;2024-03-23T11:15:23;98736.88;;;21.81;31.07
80927;BME280;70385;44.538;18.532;2024-03-23T11:18:07;98734.50;;;21.78;31.77
80927;BME280;70385;44.538;18.532;2024-03-23T11:20:35;98727.47;;;21.95;29.71
80927;BME280;70385;44.538;18.532;2024-03-23T11:23:04;98727.13;;;21.90;29.05
80927;BME280;70385;44.538;18.532;2024-03-23T11:25:30;98713.59;;;22.35;29.74
80927;BME280;70385;44.538;18.532;2024-03-23T11:28:12;98711.06;;;22.26;28.82
80927;BME280;70385;44.538;18.532;2024-03-23T11:30:38;98698.56;;;22.26;29.08
80927;BME280;70385;44.538;18.532;2024-03-23T11:33:04;98695.38;;;22.57;29.26
80927;BME280;70385;44.538;18.532;2024-03-23T11:35:34;98691.72;;;22.58;29.17
80927;BME280;70385;44.538;18.532;2024-03-23T11:38:05;98680.34;;;22.56;29.32
80927;BME280;70385;44.538;18.532;2024-03-23T11:40:32;98685.13;;;22.78;29.38
80927;BME280;70385;44.538;18.532;2024-03-23T11:42:59;98674.25;;;22.63;29.37
80927;BME280;70385;44.538;18.532;2024-03-23T11:45:25;98662.63;;;22.81;28.85
80927;BME280;70385;44.538;18.532;2024-03-23T11:48:05;98653.28;;;22.77;29.89
80927;BME280;70385;44.538;18.532;2024-03-23T11:50:32;98649.75;;;22.68;29.84
80927;BME280;70385;44.538;18.532;2024-03-23T11:53:21;98653.22;;;23.19;29.61
80927;BME280;70385;44.538;18.532;2024-03-23T11:58:28;98637.03;;;23.20;29.40
80927;BME280;70385;44.538;18.532;2024-03-23T12:00:57;98631.69;;;22.96;28.28
80927;BME280;70385;44.538;18.532;2024-03-23T12:03:24;98619.34;;;22.95;28.46
80927;BME280;70385;44.538;18.532;2024-03-23T12:05:55;98615.66;;;23.20;29.04
80927;BME280;70385;44.538;18.532;2024-03-23T12:08:36;98616.69;;;23.19;29.13
80927;BME280;70385;44.538;18.532;2024-03-23T12:11:08;98604.97;;;23.12;28.13
80927;BME280;70385;44.538;18.532;2024-03-23T12:13:36;98603.13;;;23.78;27.77
80927;BME280;70385;44.538;18.532;2024-03-23T12:18:40;98586.56;;;23.82;27.75
80927;BME280;70385;44.538;18.532;2024-03-23T12:21:10;98590.13;;;23.75;28.00
80927;BME280;70385;44.538;18.532;2024-03-23T12:23:39;98587.97;;;23.54;27.69
80927;BME280;70385;44.538;18.532;2024-03-23T12:26:05;98577.19;;;23.86;28.75
80927;BME280;70385;44.538;18.532;2024-03-23T12:28:32;98575.78;;;23.59;27.59
80927;BME280;70385;44.538;18.532;2024-03-23T12:30:58;98570.34;;;23.92;27.98
80927;BME280;70385;44.538;18.532;2024-03-23T12:33:24;98562.38;;;24.31;28.20
80927;BME280;70385;44.538;18.532;2024-03-23T12:36:11;98568.97;;;24.43;28.39
80927;BME280;70385;44.538;18.532;2024-03-23T12:39:02;98553.50;;;23.91;27.27
80927;BME280;70385;44.538;18.532;2024-03-23T12:41:28;98546.91;;;24.02;28.52
80927;BME280;70385;44.538;18.532;2024-03-23T12:43:54;98548.69;;;23.71;27.92
80927;BME280;70385;44.538;18.532;2024-03-23T12:46:20;98543.47;;;23.85;28.07
80927;BME280;70385;44.538;18.532;2024-03-23T12:48:45;98539.31;;;23.83;27.65
80927;BME280;70385;44.538;18.532;2024-03-23T12:51:11;98528.31;;;24.17;27.46
80927;BME280;70385;44.538;18.532;2024-03-23T12:53:37;98535.75;;;23.99;27.57
80927;BME280;70385;44.538;18.532;2024-03-23T12:56:03;98525.72;;;24.01;28.29
80927;BME280;70385;44.538;18.532;2024-03-23T12:58:29;98523.09;;;24.32;28.41
80927;BME280;70385;44.538;18.532;2024-03-23T13:00:58;98521.31;;;24.16;28.25
80927;BME280;70385;44.538;18.532;2024-03-23T13:03:24;98525.22;;;24.36;28.21
80927;BME280;70385;44.538;18.532;2024-03-23T13:05:53;98519.13;;;23.80;27.69
80927;BME280;70385;44.538;18.532;2024-03-23T13:08:18;98516.50;;;23.56;28.14
80927;BME280;70385;44.538;18.532;2024-03-23T13:10:44;98510.22;;;23.88;27.97
80927;BME280;70385;44.538;18.532;2024-03-23T13:13:10;98506.56;;;23.89;27.83
80927;BME280;70385;44.538;18.532;2024-03-23T13:15:36;98504.13;;;24.64;27.84
80927;BME280;70385;44.538;18.532;2024-03-23T13:18:02;98497.78;;;24.42;27.87
80927;BME280;70385;44.538;18.532;2024-03-23T13:20:28;98500.75;;;24.47;26.85
80927;BME280;70385;44.538;18.532;2024-03-23T13:22:54;98484.75;;;24.39;27.06
80927;BME280;70385;44.538;18.532;2024-03-23T13:25:20;98483.81;;;24.32;27.06
80927;BME280;70385;44.538;18.532;2024-03-23T13:27:48;98491.19;;;24.22;27.90
80927;BME280;70385;44.538;18.532;2024-03-23T13:30:14;98497.69;;;23.97;27.82
80927;BME280;70385;44.538;18.532;2024-03-23T13:32:40;98486.06;;;23.81;28.50
80927;BME280;70385;44.538;18.532;2024-03-23T13:35:06;98475.56;;;24.11;28.49
80927;BME280;70385;44.538;18.532;2024-03-23T13:37:35;98471.31;;;23.94;28.05
80927;BME280;70385;44.538;18.532;2024-03-23T13:40:01;98468.19;;;23.82;27.85
80927;BME280;70385;44.538;18.532;2024-03-23T13:42:30;98465.00;;;23.86;27.77
80927;BME280;70385;44.538;18.532;2024-03-23T13:44:56;98461.66;;;23.84;28.70
80927;BME280;70385;44.538;18.532;2024-03-23T13:47:22;98472.28;;;23.61;27.61
80927;BME280;70385;44.538;18.532;2024-03-23T13:49:47;98450.44;;;23.58;27.41